createdAt,value
2018-07-25T00:01:49.899Z,22.33
2018-07-25T00:04:18.273Z,22.30
2018-07-25T00:06:46.662Z,22.26
2018-07-25T00:09:15.029Z,22.23
2018-07-25T00:11:43.472Z,22.19
2018-07-25T00:14:11.834Z,22.16
2018-07-25T00:16:40.226Z,22.12
2018-07-25T00:19:08.622Z,22.09
2018-07-25T00:21:37.030Z,22.07
2018-07-25T00:24:05.405Z,22.04
2018-07-25T00:26:33.817Z,22.00
2018-07-25T00:29:02.196Z,21.96
2018-07-25T00:31:30.586Z,21.95
2018-07-25T00:33:58.963Z,21.93
2018-07-25T00:36:27.362Z,21.89
2018-07-25T00:38:55.726Z,21.82
2018-07-25T00:41:24.125Z,21.73
2018-07-25T00:43:52.499Z,21.63
2018-07-25T00:46:20.915Z,21.56
2018-07-25T00:48:49.289Z,21.51
2018-07-25T00:51:17.682Z,21.48
2018-07-25T00:53:46.053Z,21.45
2018-07-25T00:56:14.454Z,21.40
2018-07-25T00:58:42.825Z,21.38
2018-07-25T01:01:11.217Z,21.38
2018-07-25T01:03:39.582Z,21.36
2018-07-25T01:06:07.978Z,21.36
2018-07-25T01:08:36.358Z,21.33
2018-07-25T01:11:04.763Z,21.31
2018-07-25T01:13:33.141Z,21.28
2018-07-25T01:16:01.511Z,21.25
2018-07-25T01:18:29.906Z,21.23
2018-07-25T01:20:58.311Z,21.20
2018-07-25T01:23:26.731Z,21.19
2018-07-25T01:25:55.110Z,21.15
2018-07-25T01:28:23.506Z,21.13
2018-07-25T01:30:51.887Z,21.11
2018-07-25T01:33:20.331Z,21.09
2018-07-25T01:35:48.714Z,21.06
2018-07-25T01:38:17.118Z,21.02
2018-07-25T01:40:45.493Z,21.01
2018-07-25T01:43:14.038Z,20.99
2018-07-25T01:45:42.422Z,20.95
2018-07-25T01:48:10.905Z,20.90
2018-07-25T01:50:39.340Z,20.85
2018-07-25T01:53:07.738Z,20.80
2018-07-25T01:55:36.120Z,20.77
2018-07-25T01:58:04.538Z,20.73
2018-07-25T02:00:32.922Z,20.70
2018-07-25T02:03:01.332Z,20.67
2018-07-25T02:05:29.711Z,20.65
2018-07-25T02:07:58.114Z,20.62
2018-07-25T02:10:26.495Z,20.60
2018-07-25T02:12:54.947Z,20.58
2018-07-25T02:15:23.321Z,20.55
2018-07-25T02:17:51.786Z,20.54
2018-07-25T02:20:20.188Z,20.54
2018-07-25T02:22:48.584Z,20.51
2018-07-25T02:25:16.962Z,20.50
2018-07-25T02:27:45.366Z,20.47
2018-07-25T02:30:13.759Z,20.45
2018-07-25T02:32:42.154Z,20.43
2018-07-25T02:35:10.542Z,20.42
2018-07-25T02:37:38.946Z,20.41
2018-07-25T02:40:07.327Z,20.39
2018-07-25T02:42:35.816Z,20.39
2018-07-25T02:45:04.173Z,20.36
2018-07-25T02:47:32.582Z,20.37
2018-07-25T02:50:00.970Z,20.36
2018-07-25T02:52:29.394Z,20.36
2018-07-25T02:54:57.779Z,20.36
2018-07-25T02:57:26.181Z,20.36
2018-07-25T02:59:54.559Z,20.35
2018-07-25T03:02:22.963Z,20.33
2018-07-25T03:04:51.372Z,20.29
2018-07-25T03:07:19.774Z,20.24
2018-07-25T03:09:48.154Z,20.18
2018-07-25T03:12:16.585Z,20.11
2018-07-25T03:14:44.992Z,20.04
2018-07-25T03:17:13.427Z,19.97
2018-07-25T03:19:41.852Z,19.91
2018-07-25T03:22:10.225Z,19.85
2018-07-25T03:24:38.631Z,19.81
2018-07-25T03:27:07.102Z,19.76
2018-07-25T03:29:35.506Z,19.73
2018-07-25T03:32:03.890Z,19.72
2018-07-25T03:34:32.295Z,19.71
2018-07-25T03:37:02.346Z,19.75
2018-07-25T03:39:30.749Z,19.75
2018-07-25T03:41:59.150Z,19.76
2018-07-25T03:44:27.554Z,19.76
2018-07-25T03:46:55.930Z,19.79
2018-07-25T03:49:24.337Z,19.79
2018-07-25T03:51:52.713Z,19.79
2018-07-25T03:54:21.114Z,19.82
2018-07-25T03:56:49.502Z,19.83
2018-07-25T03:59:17.901Z,19.84
2018-07-25T04:01:46.282Z,19.83
2018-07-25T04:04:14.681Z,19.81
2018-07-25T04:06:43.073Z,19.79
2018-07-25T04:09:11.530Z,19.84
2018-07-25T04:11:39.873Z,20.08
2018-07-25T04:14:08.278Z,20.32
2018-07-25T04:16:36.680Z,20.55
2018-07-25T04:19:05.329Z,20.75
2018-07-25T04:21:33.723Z,20.93
2018-07-25T04:24:02.120Z,21.10
2018-07-25T04:26:30.490Z,21.28
2018-07-25T04:28:59.543Z,21.50
2018-07-25T04:31:27.942Z,21.80
2018-07-25T04:33:56.338Z,22.08
2018-07-25T04:36:24.722Z,22.31
2018-07-25T04:38:53.123Z,22.44
2018-07-25T04:41:21.493Z,22.68
2018-07-25T04:43:49.894Z,22.85
2018-07-25T04:46:18.431Z,23.03
2018-07-25T04:48:46.692Z,23.06
2018-07-25T04:51:15.111Z,23.04
2018-07-25T04:53:43.510Z,23.03
2018-07-25T04:56:12.052Z,23.00
2018-07-25T04:58:40.408Z,22.97
2018-07-25T05:01:08.784Z,22.96
2018-07-25T05:03:37.186Z,22.95
2018-07-25T05:06:05.584Z,22.93
2018-07-25T05:08:34.004Z,22.91
2018-07-25T05:11:02.383Z,22.93
2018-07-25T05:13:30.790Z,22.97
2018-07-25T05:15:59.178Z,23.00
2018-07-25T05:18:27.566Z,23.05
2018-07-25T05:20:55.985Z,23.10
2018-07-25T05:23:24.392Z,23.13
2018-07-25T05:25:52.786Z,23.17
2018-07-25T05:28:21.174Z,23.21
2018-07-25T05:30:49.585Z,23.27
2018-07-25T05:33:17.985Z,23.32
2018-07-25T05:35:46.387Z,23.39
2018-07-25T05:38:14.872Z,23.45
2018-07-25T05:40:43.178Z,23.51
2018-07-25T05:43:11.561Z,23.56
2018-07-25T05:45:39.949Z,23.63
2018-07-25T05:48:08.453Z,23.69
2018-07-25T05:50:36.842Z,23.77
2018-07-25T05:53:05.214Z,23.85
2018-07-25T05:55:33.597Z,23.96
2018-07-25T05:58:01.966Z,24.04
2018-07-25T06:00:30.362Z,24.16
2018-07-25T06:02:58.840Z,24.26
2018-07-25T06:05:27.189Z,24.36
2018-07-25T06:07:55.558Z,24.47
2018-07-25T06:10:23.949Z,24.55
2018-07-25T06:12:52.362Z,24.66
2018-07-25T06:15:20.745Z,24.76
2018-07-25T06:17:49.186Z,24.86
2018-07-25T06:20:17.610Z,24.94
2018-07-25T06:22:45.989Z,25.04
2018-07-25T06:25:14.395Z,25.15
2018-07-25T06:27:42.769Z,25.24
2018-07-25T06:30:11.192Z,25.34
2018-07-25T06:32:39.781Z,25.46
2018-07-25T06:35:08.179Z,25.57
2018-07-25T06:37:36.570Z,25.69
2018-07-25T06:40:05.981Z,25.79
2018-07-25T06:42:34.343Z,25.93
2018-07-25T06:45:02.739Z,26.05
2018-07-25T06:47:31.119Z,26.20
2018-07-25T06:49:59.510Z,26.33
2018-07-25T06:52:27.877Z,26.46
2018-07-25T06:54:56.265Z,26.58
2018-07-25T06:57:24.666Z,26.70
2018-07-25T06:59:53.067Z,26.82
2018-07-25T07:02:21.446Z,26.90
2018-07-25T07:04:49.838Z,27.03
2018-07-25T07:07:18.204Z,27.14
2018-07-25T07:09:46.606Z,27.25
2018-07-25T07:12:14.980Z,27.37
2018-07-25T07:14:43.362Z,27.48
2018-07-25T07:17:12.078Z,27.58
2018-07-25T07:19:40.466Z,27.68
2018-07-25T07:22:08.873Z,27.77
2018-07-25T07:24:37.250Z,27.85
2018-07-25T07:27:05.678Z,27.92
2018-07-25T07:29:34.046Z,27.99
2018-07-25T07:32:02.621Z,28.06
2018-07-25T07:34:30.990Z,28.14
2018-07-25T07:36:59.556Z,28.20
2018-07-25T07:39:27.913Z,28.29
2018-07-25T07:41:56.302Z,28.36
2018-07-25T07:44:24.674Z,28.43
2018-07-25T07:46:53.076Z,28.48
2018-07-25T07:49:21.454Z,28.53
2018-07-25T07:51:49.841Z,28.58
2018-07-25T07:54:18.210Z,28.62
2018-07-25T07:56:46.607Z,28.69
2018-07-25T07:59:15.017Z,28.74
2018-07-25T08:01:43.398Z,28.78
2018-07-25T08:04:11.771Z,28.83
2018-07-25T08:06:40.161Z,28.90
2018-07-25T08:09:10.878Z,28.98
2018-07-25T08:11:39.282Z,29.06
2018-07-25T08:14:07.655Z,29.14
2018-07-25T08:16:36.059Z,29.20
2018-07-25T08:19:04.524Z,29.24
2018-07-25T08:21:32.911Z,29.28
2018-07-25T08:24:01.291Z,29.32
2018-07-25T08:26:29.702Z,29.36
2018-07-25T08:28:58.067Z,29.41
2018-07-25T08:31:26.489Z,29.49
2018-07-25T08:33:54.860Z,29.58
2018-07-25T08:36:23.251Z,29.65
2018-07-25T08:38:51.618Z,29.71
2018-07-25T08:41:20.099Z,29.78
2018-07-25T08:43:48.430Z,29.80
2018-07-25T08:46:17.011Z,29.83
2018-07-25T08:48:45.395Z,29.85
2018-07-25T08:51:13.785Z,29.88
2018-07-25T08:53:42.167Z,29.90
2018-07-25T08:56:10.562Z,29.92
2018-07-25T08:58:38.933Z,29.98
2018-07-25T09:01:07.327Z,30.06
2018-07-25T09:03:35.702Z,30.11
2018-07-25T09:06:04.096Z,30.14
2018-07-25T09:08:32.470Z,30.19
2018-07-25T09:11:00.858Z,30.25
2018-07-25T09:13:29.242Z,30.27
2018-07-25T09:15:57.625Z,30.31
2018-07-25T09:18:26.032Z,30.34
2018-07-25T09:20:54.431Z,30.43
2018-07-25T09:23:23.075Z,30.47
2018-07-25T09:25:51.458Z,30.55
2018-07-25T09:28:19.849Z,30.62
2018-07-25T09:30:48.237Z,30.70
2018-07-25T09:33:16.655Z,30.79
2018-07-25T09:35:45.051Z,30.84
2018-07-25T09:38:13.461Z,30.92
2018-07-25T09:40:41.883Z,31.00
2018-07-25T09:43:10.310Z,31.05
2018-07-25T09:45:38.763Z,31.10
2018-07-25T09:48:07.198Z,31.14
2018-07-25T09:50:35.623Z,31.16
2018-07-25T09:53:04.132Z,31.21
2018-07-25T09:55:32.433Z,31.25
2018-07-25T09:58:00.858Z,31.31
2018-07-25T10:00:34.584Z,31.39
2018-07-25T10:03:03.015Z,31.51
2018-07-25T10:05:31.390Z,31.62
2018-07-25T10:07:59.821Z,31.71
2018-07-25T10:10:28.194Z,31.81
2018-07-25T10:12:56.608Z,31.89
2018-07-25T10:15:25.026Z,31.98
2018-07-25T10:17:54.114Z,32.07
2018-07-25T10:20:22.559Z,32.17
2018-07-25T10:22:50.991Z,32.30
2018-07-25T10:25:19.390Z,32.38
2018-07-25T10:27:48.031Z,32.39
2018-07-25T10:30:16.581Z,32.47
2018-07-25T10:32:45.056Z,32.56
2018-07-25T10:35:13.446Z,32.56
2018-07-25T10:37:41.911Z,32.50
2018-07-25T10:40:10.315Z,32.41
2018-07-25T10:42:38.760Z,32.29
2018-07-25T10:45:08.499Z,32.23
2018-07-25T10:47:36.953Z,32.25
2018-07-25T10:50:06.167Z,32.24
2018-07-25T10:52:34.615Z,32.25
2018-07-25T10:55:03.059Z,32.28
2018-07-25T10:57:31.746Z,32.33
2018-07-25T11:00:00.131Z,32.40
2018-07-25T11:02:28.550Z,32.46
2018-07-25T11:04:56.965Z,32.54
2018-07-25T11:07:25.393Z,32.59
2018-07-25T11:09:53.803Z,32.66
2018-07-25T11:12:22.530Z,32.69
2018-07-25T11:14:50.919Z,32.74
2018-07-25T11:17:19.325Z,32.67
2018-07-25T11:19:50.842Z,32.57
2018-07-25T11:22:19.262Z,32.55
2018-07-25T11:24:47.649Z,32.58
2018-07-25T11:27:16.036Z,32.64
2018-07-25T11:29:44.445Z,32.65
2018-07-25T11:32:12.906Z,32.70
2018-07-25T11:34:41.421Z,32.77
2018-07-25T11:37:09.896Z,32.85
2018-07-25T11:39:38.287Z,32.91
2018-07-25T11:42:06.663Z,32.97
2018-07-25T11:44:35.059Z,32.98
2018-07-25T11:47:03.429Z,33.03
2018-07-25T11:49:31.819Z,33.12
2018-07-25T11:52:00.187Z,33.21
2018-07-25T11:54:28.582Z,33.31
2018-07-25T11:56:56.948Z,33.38
2018-07-25T11:59:25.377Z,33.41
2018-07-25T12:01:53.866Z,33.40
2018-07-25T12:04:22.321Z,33.37
2018-07-25T12:06:50.702Z,33.36
2018-07-25T12:09:19.106Z,33.41
2018-07-25T12:11:48.202Z,33.46
2018-07-25T12:14:18.045Z,33.53
2018-07-25T12:16:46.451Z,33.58
2018-07-25T12:19:15.109Z,33.56
2018-07-25T12:21:43.493Z,33.54
2018-07-25T12:24:11.914Z,33.60
2018-07-25T12:26:40.419Z,33.64
2018-07-25T12:29:08.730Z,33.64
2018-07-25T12:31:37.130Z,33.68
2018-07-25T12:34:05.747Z,33.71
2018-07-25T12:36:34.146Z,33.72
2018-07-25T12:39:02.554Z,33.74
2018-07-25T12:41:30.951Z,33.76
2018-07-25T12:43:59.381Z,33.80
2018-07-25T12:46:27.775Z,33.83
2018-07-25T12:48:56.194Z,33.82
2018-07-25T12:51:24.638Z,33.81
2018-07-25T12:53:53.070Z,33.80
2018-07-25T12:56:21.462Z,33.81
2018-07-25T12:58:49.887Z,33.85
2018-07-25T13:01:18.310Z,33.90
2018-07-25T13:03:46.738Z,33.96
2018-07-25T13:06:15.113Z,34.02
2018-07-25T13:08:43.614Z,34.09
2018-07-25T13:11:11.994Z,34.14
2018-07-25T13:13:40.402Z,34.18
2018-07-25T13:16:08.786Z,34.25
2018-07-25T13:18:37.206Z,34.29
2018-07-25T13:21:05.629Z,34.31
2018-07-25T13:23:34.057Z,34.29
2018-07-25T13:26:02.471Z,34.29
2018-07-25T13:28:30.915Z,34.30
2018-07-25T13:30:59.346Z,34.35
2018-07-25T13:33:27.738Z,34.43
2018-07-25T13:35:56.204Z,34.51
2018-07-25T13:38:24.575Z,34.53
2018-07-25T13:40:53.024Z,34.55
2018-07-25T13:43:21.459Z,34.55
2018-07-25T13:45:49.928Z,34.58
2018-07-25T13:48:18.291Z,34.64
2018-07-25T13:50:46.713Z,34.72
2018-07-25T13:53:15.113Z,34.77
2018-07-25T13:55:43.537Z,34.83
2018-07-25T13:58:11.925Z,34.88
2018-07-25T14:00:40.353Z,34.93
2018-07-25T14:03:08.754Z,34.94
2018-07-25T14:05:37.170Z,34.99
2018-07-25T14:08:05.851Z,35.03
2018-07-25T14:10:34.262Z,35.06
2018-07-25T14:13:02.671Z,35.02
2018-07-25T14:15:31.098Z,34.98
2018-07-25T14:17:59.553Z,34.95
2018-07-25T14:20:27.974Z,34.96
2018-07-25T14:22:56.367Z,34.99
2018-07-25T14:25:25.111Z,34.98
2018-07-25T14:27:53.511Z,34.99
2018-07-25T14:30:22.115Z,35.01
2018-07-25T14:32:50.437Z,35.01
2018-07-25T14:35:18.850Z,35.01
2018-07-25T14:37:52.237Z,34.95
2018-07-25T14:40:20.759Z,34.88
2018-07-25T14:42:49.046Z,34.81
2018-07-25T14:45:17.455Z,34.74
2018-07-25T14:47:45.843Z,34.69
2018-07-25T14:50:14.353Z,34.63
2018-07-25T14:52:42.753Z,34.55
2018-07-25T14:55:11.175Z,34.47
2018-07-25T14:57:39.566Z,34.38
2018-07-25T15:00:07.999Z,34.33
2018-07-25T15:02:36.623Z,34.34
2018-07-25T15:05:05.559Z,34.36
2018-07-25T15:07:33.988Z,34.41
2018-07-25T15:10:02.385Z,34.41
2018-07-25T15:12:36.093Z,34.38
2018-07-25T15:15:05.138Z,34.28
2018-07-25T15:17:33.633Z,34.09
2018-07-25T15:20:02.070Z,34.00
2018-07-25T15:22:30.466Z,33.95
2018-07-25T15:24:58.895Z,33.92
2018-07-25T15:27:27.290Z,33.90
2018-07-25T15:29:55.711Z,33.92
2018-07-25T15:32:24.127Z,33.93
2018-07-25T15:34:52.554Z,33.96
2018-07-25T15:37:20.979Z,33.97
2018-07-25T15:39:49.404Z,33.99
2018-07-25T15:42:17.838Z,34.03
2018-07-25T15:44:46.274Z,34.00
2018-07-25T15:47:14.698Z,33.96
2018-07-25T15:49:43.102Z,33.94
2018-07-25T15:52:11.528Z,33.96
2018-07-25T15:54:39.914Z,33.94
2018-07-25T15:57:08.410Z,33.98
2018-07-25T15:59:36.818Z,34.02
2018-07-25T16:02:05.239Z,34.00
2018-07-25T16:04:33.635Z,33.99
2018-07-25T16:07:02.053Z,33.95
2018-07-25T16:09:30.450Z,33.92
2018-07-25T16:11:58.904Z,33.87
2018-07-25T16:14:27.310Z,33.79
2018-07-25T16:16:55.751Z,33.73
2018-07-25T16:19:24.149Z,33.69
2018-07-25T16:21:52.575Z,33.67
2018-07-25T16:24:20.975Z,33.64
2018-07-25T16:26:49.377Z,33.65
2018-07-25T16:29:17.766Z,33.63
2018-07-25T16:31:46.189Z,33.62
2018-07-25T16:34:14.592Z,33.60
2018-07-25T16:36:43.023Z,33.59
2018-07-25T16:39:14.539Z,33.65
2018-07-25T16:41:42.970Z,33.75
2018-07-25T16:44:11.602Z,33.84
2018-07-25T16:46:40.110Z,33.93
2018-07-25T16:49:08.669Z,34.05
2018-07-25T16:51:37.103Z,34.13
2018-07-25T16:54:05.550Z,34.25
2018-07-25T16:56:33.995Z,34.37
2018-07-25T16:59:02.367Z,34.52
2018-07-25T17:01:30.786Z,34.64
2018-07-25T17:03:59.181Z,34.76
2018-07-25T17:06:27.613Z,34.81
2018-07-25T17:08:56.007Z,34.85
2018-07-25T17:11:24.421Z,34.87
2018-07-25T17:13:52.815Z,34.85
2018-07-25T17:16:21.218Z,34.87
2018-07-25T17:18:49.615Z,34.87
2018-07-25T17:21:18.055Z,34.88
2018-07-25T17:23:46.439Z,34.90
2018-07-25T17:26:14.854Z,34.87
2018-07-25T17:28:43.246Z,34.83
2018-07-25T17:31:11.661Z,34.78
2018-07-25T17:33:40.064Z,34.73
2018-07-25T17:36:08.531Z,34.68
2018-07-25T17:38:36.931Z,34.56
2018-07-25T17:41:05.371Z,34.28
2018-07-25T17:43:33.786Z,33.92
2018-07-25T17:46:02.258Z,33.61
2018-07-25T17:48:30.683Z,33.33
2018-07-25T17:50:59.087Z,33.04
2018-07-25T17:53:27.525Z,32.75
2018-07-25T17:55:56.017Z,32.46
2018-07-25T17:58:24.439Z,32.19
2018-07-25T18:00:52.834Z,31.92
2018-07-25T18:03:21.268Z,31.67
2018-07-25T18:05:49.654Z,31.41
2018-07-25T18:08:18.063Z,31.17
2018-07-25T18:10:46.474Z,30.95
2018-07-25T18:13:20.334Z,30.75
2018-07-25T18:15:48.736Z,30.56
2018-07-25T18:18:17.129Z,30.39
2018-07-25T18:20:45.550Z,30.22
2018-07-25T18:23:13.974Z,30.06
2018-07-25T18:25:42.370Z,29.92
2018-07-25T18:28:10.791Z,29.82
2018-07-25T18:30:39.190Z,29.69
2018-07-25T18:33:07.702Z,29.58
2018-07-25T18:35:36.179Z,29.46
2018-07-25T18:38:04.742Z,29.36
2018-07-25T18:40:33.156Z,29.26
2018-07-25T18:43:01.586Z,29.17
2018-07-25T18:45:29.988Z,29.09
2018-07-25T18:47:58.413Z,28.99
2018-07-25T18:50:26.910Z,28.92
2018-07-25T18:52:55.333Z,28.82
2018-07-25T18:55:23.713Z,28.73
2018-07-25T18:57:52.127Z,28.62
2018-07-25T19:00:20.493Z,28.52
2018-07-25T19:02:48.890Z,28.43
2018-07-25T19:05:17.294Z,28.35
2018-07-25T19:07:45.713Z,28.26
2018-07-25T19:10:14.090Z,28.17
2018-07-25T19:12:42.469Z,28.08
2018-07-25T19:15:16.125Z,28.01
2018-07-25T19:17:44.509Z,27.91
2018-07-25T19:20:12.902Z,27.82
2018-07-25T19:22:41.290Z,27.76
2018-07-25T19:25:09.668Z,27.70
2018-07-25T19:27:38.058Z,27.65
2018-07-25T19:30:06.470Z,27.59
2018-07-25T19:32:34.863Z,27.52
2018-07-25T19:35:03.282Z,27.47
2018-07-25T19:37:31.670Z,27.43
2018-07-25T19:40:00.034Z,27.37
2018-07-25T19:42:28.435Z,27.33
2018-07-25T19:44:56.811Z,27.28
2018-07-25T19:47:25.177Z,27.23
2018-07-25T19:49:53.565Z,27.18
2018-07-25T19:52:21.946Z,27.11
2018-07-25T19:54:50.334Z,27.07
2018-07-25T19:57:18.728Z,27.03
2018-07-25T19:59:47.122Z,26.99
2018-07-25T20:02:15.566Z,26.96
2018-07-25T20:04:43.958Z,26.92
2018-07-25T20:07:12.331Z,26.87
2018-07-25T20:09:40.735Z,26.83
2018-07-25T20:12:09.121Z,26.78
2018-07-25T20:14:42.743Z,26.70
2018-07-25T20:17:11.114Z,26.60
2018-07-25T20:19:39.525Z,26.53
2018-07-25T20:22:07.917Z,26.44
2018-07-25T20:24:36.306Z,26.36
2018-07-25T20:27:04.690Z,26.25
2018-07-25T20:29:33.137Z,26.17
2018-07-25T20:32:01.511Z,26.09
2018-07-25T20:34:29.902Z,26.02
2018-07-25T20:36:58.270Z,25.97
2018-07-25T20:39:26.662Z,25.90
2018-07-25T20:41:55.026Z,25.82
2018-07-25T20:44:23.433Z,25.76
2018-07-25T20:46:51.806Z,25.68
2018-07-25T20:49:20.193Z,25.61
2018-07-25T20:51:48.571Z,25.54
2018-07-25T20:54:16.961Z,25.47
2018-07-25T20:56:45.335Z,25.38
2018-07-25T20:59:13.777Z,25.33
2018-07-25T21:01:42.141Z,25.30
2018-07-25T21:04:10.546Z,25.21
2018-07-25T21:06:38.926Z,25.15
2018-07-25T21:09:08.354Z,25.08
2018-07-25T21:11:36.754Z,24.97
2018-07-25T21:14:05.168Z,24.86
2018-07-25T21:16:33.546Z,24.74
2018-07-25T21:19:01.934Z,24.63
2018-07-25T21:21:30.326Z,24.52
2018-07-25T21:23:58.724Z,24.47
2018-07-25T21:26:27.094Z,24.42
2018-07-25T21:28:55.490Z,24.40
2018-07-25T21:31:23.857Z,24.35
2018-07-25T21:33:52.247Z,24.31
2018-07-25T21:36:20.614Z,24.28
2018-07-25T21:38:49.005Z,24.26
2018-07-25T21:41:17.370Z,24.23
2018-07-25T21:43:45.766Z,24.20
2018-07-25T21:46:14.133Z,24.17
2018-07-25T21:48:42.501Z,24.14
2018-07-25T21:51:10.900Z,24.07
2018-07-25T21:53:39.273Z,24.00
2018-07-25T21:56:07.670Z,23.95
2018-07-25T21:58:36.042Z,23.92
2018-07-25T22:01:10.627Z,23.87
2018-07-25T22:03:39.125Z,23.81
2018-07-25T22:06:07.531Z,23.78
2018-07-25T22:08:36.073Z,23.75
2018-07-25T22:11:04.461Z,23.71
2018-07-25T22:13:33.041Z,23.67
2018-07-25T22:16:01.653Z,23.62
2018-07-25T22:18:30.027Z,23.60
2018-07-25T22:20:58.450Z,23.57
2018-07-25T22:23:26.821Z,23.55
2018-07-25T22:25:55.225Z,23.53
2018-07-25T22:28:23.597Z,23.49
2018-07-25T22:30:52.001Z,23.48
2018-07-25T22:33:20.378Z,23.47
2018-07-25T22:35:48.767Z,23.47
2018-07-25T22:38:17.138Z,23.45
2018-07-25T22:40:45.534Z,23.43
2018-07-25T22:43:13.906Z,23.41
2018-07-25T22:45:42.302Z,23.37
2018-07-25T22:48:10.706Z,23.34
2018-07-25T22:50:39.226Z,23.30
2018-07-25T22:53:07.638Z,23.28
2018-07-25T22:55:36.093Z,23.24
2018-07-25T22:58:04.830Z,23.22
2018-07-25T23:00:33.222Z,23.19
2018-07-25T23:03:01.595Z,23.18
2018-07-25T23:05:29.985Z,23.15
2018-07-25T23:07:58.378Z,23.12
2018-07-25T23:10:26.826Z,23.08
2018-07-25T23:12:55.206Z,23.04
2018-07-25T23:15:23.614Z,23.00
2018-07-25T23:17:52.230Z,22.98
2018-07-25T23:20:20.650Z,22.94
2018-07-25T23:22:54.106Z,22.89
2018-07-25T23:25:22.510Z,22.65
2018-07-25T23:27:51.179Z,22.75
2018-07-25T23:30:19.882Z,22.68
2018-07-25T23:32:48.846Z,22.61
2018-07-25T23:35:17.246Z,22.54
2018-07-25T23:37:45.809Z,22.48
2018-07-25T23:40:14.218Z,22.46
2018-07-25T23:42:42.586Z,22.43
2018-07-25T23:45:10.981Z,22.40
2018-07-25T23:47:39.359Z,22.38
2018-07-25T23:50:07.775Z,22.31
2018-07-25T23:52:36.170Z,22.24
2018-07-25T23:55:04.762Z,22.17
2018-07-25T23:57:33.150Z,22.10
